sensor_id;sensor_type;location;lat;lon;timestamp;P1;durP1;ratioP1;P2;durP2;ratioP2
49252;SDS011;35103;47.952;-1.502;2022-07-23T00:00:10;609.38;;;561.53;;
49252;SDS011;35103;47.952;-1.502;2022-07-23T00:02:36;466.42;;;430.75;;
49252;SDS011;35103;47.952;-1.502;2022-07-23T00:05:04;404.13;;;373.02;;
49252;SDS011;35103;47.952;-1.502;2022-07-23T00:07:30;489.98;;;451.80;;
49252;SDS011;35103;47.952;-1.502;2022-07-23T00:09:56;528.10;;;485.17;;
49252;SDS011;35103;47.952;-1.502;2022-07-23T00:12:24;399.90;;;370.77;;
49252;SDS011;35103;47.952;-1.502;2022-07-23T00:14:50;521.35;;;481.15;;
49252;SDS011;35103;47.952;-1.502;2022-07-23T00:17:15;449.75;;;414.20;;
49252;SDS011;35103;47.952;-1.502;2022-07-23T00:19:41;382.55;;;353.05;;
49252;SDS011;35103;47.952;-1.502;2022-07-23T00:22:10;365.05;;;338.23;;
49252;SDS011;35103;47.952;-1.502;2022-07-23T00:24:35;447.15;;;411.15;;
49252;SDS011;35103;47.952;-1.502;2022-07-23T00:27:01;387.20;;;358.67;;
49252;SDS011;35103;47.952;-1.502;2022-07-23T00:29:26;429.67;;;396.88;;
49252;SDS011;35103;47.952;-1.502;2022-07-23T00:31:52;429.98;;;397.13;;
49252;SDS011;35103;47.952;-1.502;2022-07-23T00:34:17;404.05;;;373.35;;
49252;SDS011;35103;47.952;-1.502;2022-07-23T00:36:43;460.60;;;424.55;;
49252;SDS011;35103;47.952;-1.502;2022-07-23T00:39:08;490.15;;;452.17;;
49252;SDS011;35103;47.952;-1.502;2022-07-23T00:41:34;478.55;;;440.02;;
49252;SDS011;35103;47.952;-1.502;2022-07-23T00:44:15;471.77;;;434.10;;
49252;SDS011;35103;47.952;-1.502;2022-07-23T00:46:50;347.35;;;320.77;;
49252;SDS011;35103;47.952;-1.502;2022-07-23T00:49:21;390.10;;;359.02;;
49252;SDS011;35103;47.952;-1.502;2022-07-23T00:51:54;403.75;;;373.20;;
49252;SDS011;35103;47.952;-1.502;2022-07-23T00:54:22;524.30;;;482.10;;
49252;SDS011;35103;47.952;-1.502;2022-07-23T00:56:52;348.92;;;325.10;;
49252;SDS011;35103;47.952;-1.502;2022-07-23T00:59:18;396.48;;;364.70;;
49252;SDS011;35103;47.952;-1.502;2022-07-23T01:01:43;398.58;;;368.27;;
49252;SDS011;35103;47.952;-1.502;2022-07-23T01:04:09;482.55;;;442.65;;
49252;SDS011;35103;47.952;-1.502;2022-07-23T01:06:35;568.05;;;519.65;;
49252;SDS011;35103;47.952;-1.502;2022-07-23T01:09:03;530.90;;;487.38;;
49252;SDS011;35103;47.952;-1.502;2022-07-23T01:11:31;401.35;;;369.48;;
49252;SDS011;35103;47.952;-1.502;2022-07-23T01:14:07;648.95;;;592.03;;
49252;SDS011;35103;47.952;-1.502;2022-07-23T01:19:21;414.67;;;380.05;;
49252;SDS011;35103;47.952;-1.502;2022-07-23T01:21:51;573.28;;;525.95;;
49252;SDS011;35103;47.952;-1.502;2022-07-23T01:24:18;467.95;;;428.80;;
49252;SDS011;35103;47.952;-1.502;2022-07-23T01:26:44;524.35;;;482.13;;
49252;SDS011;35103;47.952;-1.502;2022-07-23T01:29:10;398.52;;;367.48;;
49252;SDS011;35103;47.952;-1.502;2022-07-23T01:31:37;365.20;;;338.00;;
49252;SDS011;35103;47.952;-1.502;2022-07-23T01:34:03;421.70;;;388.58;;
49252;SDS011;35103;47.952;-1.502;2022-07-23T01:36:28;616.58;;;565.95;;
49252;SDS011;35103;47.952;-1.502;2022-07-23T01:38:54;422.33;;;388.42;;
49252;SDS011;35103;47.952;-1.502;2022-07-23T01:41:19;363.65;;;336.05;;
49252;SDS011;35103;47.952;-1.502;2022-07-23T01:43:45;393.10;;;361.10;;
49252;SDS011;35103;47.952;-1.502;2022-07-23T01:46:11;344.70;;;320.10;;
49252;SDS011;35103;47.952;-1.502;2022-07-23T01:48:37;562.95;;;516.78;;
49252;SDS011;35103;47.952;-1.502;2022-07-23T01:51:02;791.83;;;723.80;;
49252;SDS011;35103;47.952;-1.502;2022-07-23T01:53:28;335.40;;;310.73;;
49252;SDS011;35103;47.952;-1.502;2022-07-23T01:55:54;410.00;;;377.70;;
49252;SDS011;35103;47.952;-1.502;2022-07-23T01:58:19;466.65;;;429.65;;
49252;SDS011;35103;47.952;-1.502;2022-07-23T02:00:45;566.38;;;520.95;;
49252;SDS011;35103;47.952;-1.502;2022-07-23T02:03:10;461.02;;;424.77;;
49252;SDS011;35103;47.952;-1.502;2022-07-23T02:05:36;429.35;;;395.77;;
49252;SDS011;35103;47.952;-1.502;2022-07-23T02:08:01;335.38;;;310.10;;
49252;SDS011;35103;47.952;-1.502;2022-07-23T02:10:27;428.10;;;393.33;;
49252;SDS011;35103;47.952;-1.502;2022-07-23T02:12:55;432.88;;;399.45;;
49252;SDS011;35103;47.952;-1.502;2022-07-23T02:15:21;407.77;;;375.38;;
49252;SDS011;35103;47.952;-1.502;2022-07-23T02:17:46;581.83;;;535.53;;
49252;SDS011;35103;47.952;-1.502;2022-07-23T02:20:12;415.27;;;383.50;;
49252;SDS011;35103;47.952;-1.502;2022-07-23T02:22:38;588.38;;;538.38;;
49252;SDS011;35103;47.952;-1.502;2022-07-23T02:25:04;372.25;;;343.05;;
49252;SDS011;35103;47.952;-1.502;2022-07-23T02:27:30;363.58;;;335.05;;
49252;SDS011;35103;47.952;-1.502;2022-07-23T02:29:56;612.53;;;560.25;;
49252;SDS011;35103;47.952;-1.502;2022-07-23T02:32:21;375.23;;;347.63;;
49252;SDS011;35103;47.952;-1.502;2022-07-23T02:34:50;489.45;;;447.90;;
49252;SDS011;35103;47.952;-1.502;2022-07-23T02:37:16;450.75;;;413.65;;
49252;SDS011;35103;47.952;-1.502;2022-07-23T02:39:42;435.63;;;402.45;;
49252;SDS011;35103;47.952;-1.502;2022-07-23T02:42:08;563.03;;;514.92;;
49252;SDS011;35103;47.952;-1.502;2022-07-23T02:44:33;430.88;;;395.23;;
49252;SDS011;35103;47.952;-1.502;2022-07-23T02:46:59;567.90;;;521.65;;
49252;SDS011;35103;47.952;-1.502;2022-07-23T02:49:25;360.30;;;332.52;;
49252;SDS011;35103;47.952;-1.502;2022-07-23T02:51:51;347.98;;;322.30;;
49252;SDS011;35103;47.952;-1.502;2022-07-23T02:54:17;457.67;;;421.35;;
49252;SDS011;35103;47.952;-1.502;2022-07-23T02:56:42;460.05;;;422.70;;
49252;SDS011;35103;47.952;-1.502;2022-07-23T02:59:08;390.00;;;357.88;;
49252;SDS011;35103;47.952;-1.502;2022-07-23T03:01:34;454.20;;;417.55;;
49252;SDS011;35103;47.952;-1.502;2022-07-23T03:03:59;549.55;;;502.30;;
49252;SDS011;35103;47.952;-1.502;2022-07-23T03:06:25;590.22;;;541.33;;
49252;SDS011;35103;47.952;-1.502;2022-07-23T03:08:51;397.77;;;367.15;;
49252;SDS011;35103;47.952;-1.502;2022-07-23T03:11:16;498.92;;;456.17;;
49252;SDS011;35103;47.952;-1.502;2022-07-23T03:13:42;600.47;;;548.50;;
49252;SDS011;35103;47.952;-1.502;2022-07-23T03:16:11;367.48;;;339.05;;
49252;SDS011;35103;47.952;-1.502;2022-07-23T03:18:36;423.85;;;389.50;;
49252;SDS011;35103;47.952;-1.502;2022-07-23T03:21:02;410.48;;;378.20;;
49252;SDS011;35103;47.952;-1.502;2022-07-23T03:23:28;402.27;;;368.42;;
49252;SDS011;35103;47.952;-1.502;2022-07-23T03:25:53;375.17;;;344.90;;
49252;SDS011;35103;47.952;-1.502;2022-07-23T03:28:19;381.80;;;352.13;;
49252;SDS011;35103;47.952;-1.502;2022-07-23T03:30:45;708.08;;;647.75;;
49252;SDS011;35103;47.952;-1.502;2022-07-23T03:33:11;371.65;;;343.90;;
49252;SDS011;35103;47.952;-1.502;2022-07-23T03:35:37;374.70;;;343.48;;
49252;SDS011;35103;47.952;-1.502;2022-07-23T03:38:03;269.98;;;251.57;;
49252;SDS011;35103;47.952;-1.502;2022-07-23T03:40:28;303.33;;;281.58;;
49252;SDS011;35103;47.952;-1.502;2022-07-23T03:42:54;358.88;;;333.05;;
49252;SDS011;35103;47.952;-1.502;2022-07-23T03:45:20;398.40;;;366.83;;
49252;SDS011;35103;47.952;-1.502;2022-07-23T03:47:45;347.27;;;319.50;;
49252;SDS011;35103;47.952;-1.502;2022-07-23T03:50:11;383.08;;;354.20;;
49252;SDS011;35103;47.952;-1.502;2022-07-23T03:52:36;390.58;;;359.88;;
49252;SDS011;35103;47.952;-1.502;2022-07-23T03:55:02;303.92;;;282.05;;
49252;SDS011;35103;47.952;-1.502;2022-07-23T03:57:28;559.38;;;515.17;;
49252;SDS011;35103;47.952;-1.502;2022-07-23T03:59:54;307.23;;;285.90;;
49252;SDS011;35103;47.952;-1.502;2022-07-23T04:02:20;368.08;;;340.38;;
49252;SDS011;35103;47.952;-1.502;2022-07-23T04:04:45;324.52;;;299.33;;
49252;SDS011;35103;47.952;-1.502;2022-07-23T04:07:11;306.63;;;284.13;;
49252;SDS011;35103;47.952;-1.502;2022-07-23T04:09:37;385.05;;;353.20;;
49252;SDS011;35103;47.952;-1.502;2022-07-23T04:12:03;370.95;;;341.27;;
49252;SDS011;35103;47.952;-1.502;2022-07-23T04:14:29;666.25;;;610.53;;
49252;SDS011;35103;47.952;-1.502;2022-07-23T04:16:54;466.75;;;428.85;;
49252;SDS011;35103;47.952;-1.502;2022-07-23T04:19:20;599.72;;;551.67;;
49252;SDS011;35103;47.952;-1.502;2022-07-23T04:21:45;373.33;;;345.08;;
49252;SDS011;35103;47.952;-1.502;2022-07-23T04:24:11;374.38;;;346.15;;
49252;SDS011;35103;47.952;-1.502;2022-07-23T04:26:36;468.77;;;430.40;;
49252;SDS011;35103;47.952;-1.502;2022-07-23T04:29:02;438.08;;;402.40;;
49252;SDS011;35103;47.952;-1.502;2022-07-23T04:31:27;486.63;;;449.67;;
49252;SDS011;35103;47.952;-1.502;2022-07-23T04:33:53;441.30;;;405.20;;
49252;SDS011;35103;47.952;-1.502;2022-07-23T04:36:18;351.25;;;323.58;;
49252;SDS011;35103;47.952;-1.502;2022-07-23T04:38:44;428.05;;;393.27;;
49252;SDS011;35103;47.952;-1.502;2022-07-23T04:41:10;354.80;;;325.63;;
49252;SDS011;35103;47.952;-1.502;2022-07-23T04:43:35;476.75;;;438.48;;
49252;SDS011;35103;47.952;-1.502;2022-07-23T04:46:01;480.40;;;441.65;;
49252;SDS011;35103;47.952;-1.502;2022-07-23T04:48:26;385.08;;;355.35;;
49252;SDS011;35103;47.952;-1.502;2022-07-23T04:50:52;426.83;;;392.10;;
49252;SDS011;35103;47.952;-1.502;2022-07-23T04:53:17;373.52;;;343.95;;
49252;SDS011;35103;47.952;-1.502;2022-07-23T04:55:46;350.50;;;324.95;;
49252;SDS011;35103;47.952;-1.502;2022-07-23T04:58:11;336.35;;;309.58;;
49252;SDS011;35103;47.952;-1.502;2022-07-23T05:00:37;532.88;;;487.73;;
49252;SDS011;35103;47.952;-1.502;2022-07-23T05:03:02;661.83;;;606.60;;
49252;SDS011;35103;47.952;-1.502;2022-07-23T05:05:28;550.78;;;506.80;;
49252;SDS011;35103;47.952;-1.502;2022-07-23T05:07:54;463.92;;;427.73;;
49252;SDS011;35103;47.952;-1.502;2022-07-23T05:10:19;530.80;;;484.70;;
49252;SDS011;35103;47.952;-1.502;2022-07-23T05:12:45;368.77;;;339.98;;
49252;SDS011;35103;47.952;-1.502;2022-07-23T05:15:10;378.17;;;349.52;;
49252;SDS011;35103;47.952;-1.502;2022-07-23T05:17:39;379.15;;;348.52;;
49252;SDS011;35103;47.952;-1.502;2022-07-23T05:20:04;381.83;;;352.98;;
49252;SDS011;35103;47.952;-1.502;2022-07-23T05:22:30;344.23;;;317.05;;
49252;SDS011;35103;47.952;-1.502;2022-07-23T05:24:56;413.92;;;381.90;;
49252;SDS011;35103;47.952;-1.502;2022-07-23T05:27:22;349.02;;;322.60;;
49252;SDS011;35103;47.952;-1.502;2022-07-23T05:29:47;568.35;;;521.92;;
49252;SDS011;35103;47.952;-1.502;2022-07-23T05:32:16;409.65;;;376.90;;
49252;SDS011;35103;47.952;-1.502;2022-07-23T05:34:41;365.63;;;336.63;;
49252;SDS011;35103;47.952;-1.502;2022-07-23T05:37:07;413.85;;;380.70;;
49252;SDS011;35103;47.952;-1.502;2022-07-23T05:39:32;511.63;;;470.08;;
49252;SDS011;35103;47.952;-1.502;2022-07-23T05:41:58;390.73;;;362.00;;
49252;SDS011;35103;47.952;-1.502;2022-07-23T05:44:27;413.27;;;381.23;;
49252;SDS011;35103;47.952;-1.502;2022-07-23T05:46:52;542.03;;;498.80;;
49252;SDS011;35103;47.952;-1.502;2022-07-23T05:49:18;481.25;;;442.50;;
49252;SDS011;35103;47.952;-1.502;2022-07-23T05:51:43;455.15;;;418.88;;
49252;SDS011;35103;47.952;-1.502;2022-07-23T05:54:09;540.85;;;496.75;;
49252;SDS011;35103;47.952;-1.502;2022-07-23T05:56:34;454.67;;;419.10;;
49252;SDS011;35103;47.952;-1.502;2022-07-23T05:59:00;465.27;;;428.23;;
49252;SDS011;35103;47.952;-1.502;2022-07-23T06:01:26;603.03;;;550.92;;
49252;SDS011;35103;47.952;-1.502;2022-07-23T06:03:51;609.90;;;556.55;;
49252;SDS011;35103;47.952;-1.502;2022-07-23T06:06:17;403.17;;;372.27;;
49252;SDS011;35103;47.952;-1.502;2022-07-23T06:08:42;584.83;;;536.45;;
49252;SDS011;35103;47.952;-1.502;2022-07-23T06:11:08;505.23;;;465.30;;
49252;SDS011;35103;47.952;-1.502;2022-07-23T06:13:34;514.75;;;475.23;;
49252;SDS011;35103;47.952;-1.502;2022-07-23T06:15:59;574.22;;;525.42;;
49252;SDS011;35103;47.952;-1.502;2022-07-23T06:18:25;400.00;;;369.52;;
49252;SDS011;35103;47.952;-1.502;2022-07-23T06:20:50;466.15;;;429.15;;
49252;SDS011;35103;47.952;-1.502;2022-07-23T06:23:16;605.97;;;556.20;;
49252;SDS011;35103;47.952;-1.502;2022-07-23T06:25:42;644.90;;;591.38;;
49252;SDS011;35103;47.952;-1.502;2022-07-23T06:28:08;576.00;;;526.88;;
49252;SDS011;35103;47.952;-1.502;2022-07-23T06:30:36;595.13;;;547.20;;
49252;SDS011;35103;47.952;-1.502;2022-07-23T06:33:02;549.22;;;505.95;;
49252;SDS011;35103;47.952;-1.502;2022-07-23T06:35:28;621.45;;;568.45;;
49252;SDS011;35103;47.952;-1.502;2022-07-23T06:37:53;480.02;;;442.08;;
49252;SDS011;35103;47.952;-1.502;2022-07-23T06:40:19;616.20;;;565.50;;
49252;SDS011;35103;47.952;-1.502;2022-07-23T06:42:45;718.97;;;656.35;;
49252;SDS011;35103;47.952;-1.502;2022-07-23T06:45:10;572.10;;;524.17;;
49252;SDS011;35103;47.952;-1.502;2022-07-23T06:47:36;707.92;;;646.58;;
49252;SDS011;35103;47.952;-1.502;2022-07-23T06:50:01;659.58;;;604.67;;
49252;SDS011;35103;47.952;-1.502;2022-07-23T06:52:27;570.67;;;524.08;;
49252;SDS011;35103;47.952;-1.502;2022-07-23T06:54:53;656.10;;;599.90;;
49252;SDS011;35103;47.952;-1.502;2022-07-23T06:57:21;530.63;;;488.10;;
49252;SDS011;35103;47.952;-1.502;2022-07-23T06:59:47;639.20;;;588.78;;
49252;SDS011;35103;47.952;-1.502;2022-07-23T07:02:12;582.63;;;536.45;;
49252;SDS011;35103;47.952;-1.502;2022-07-23T07:04:38;628.40;;;574.50;;
49252;SDS011;35103;47.952;-1.502;2022-07-23T07:07:04;659.83;;;603.78;;
49252;SDS011;35103;47.952;-1.502;2022-07-23T07:09:29;682.97;;;625.17;;
49252;SDS011;35103;47.952;-1.502;2022-07-23T07:11:55;686.10;;;626.20;;
49252;SDS011;35103;47.952;-1.502;2022-07-23T07:14:20;527.80;;;486.63;;
49252;SDS011;35103;47.952;-1.502;2022-07-23T07:16:46;628.17;;;577.88;;
49252;SDS011;35103;47.952;-1.502;2022-07-23T07:19:12;596.67;;;549.90;;
49252;SDS011;35103;47.952;-1.502;2022-07-23T07:21:37;727.95;;;664.38;;
49252;SDS011;35103;47.952;-1.502;2022-07-23T07:24:03;686.42;;;630.03;;
49252;SDS011;35103;47.952;-1.502;2022-07-23T07:26:29;652.65;;;597.08;;
49252;SDS011;35103;47.952;-1.502;2022-07-23T07:28:54;656.55;;;599.42;;
49252;SDS011;35103;47.952;-1.502;2022-07-23T07:31:20;708.40;;;645.00;;
49252;SDS011;35103;47.952;-1.502;2022-07-23T07:33:46;670.83;;;614.53;;
49252;SDS011;35103;47.952;-1.502;2022-07-23T07:36:11;622.75;;;572.10;;
49252;SDS011;35103;47.952;-1.502;2022-07-23T07:38:37;785.05;;;715.70;;
49252;SDS011;35103;47.952;-1.502;2022-07-23T07:41:02;534.13;;;491.42;;
49252;SDS011;35103;47.952;-1.502;2022-07-23T07:43:28;670.17;;;614.17;;
49252;SDS011;35103;47.952;-1.502;2022-07-23T07:45:56;635.50;;;583.40;;
49252;SDS011;35103;47.952;-1.502;2022-07-23T07:48:22;696.38;;;636.20;;
49252;SDS011;35103;47.952;-1.502;2022-07-23T07:50:47;498.92;;;459.63;;
49252;SDS011;35103;47.952;-1.502;2022-07-23T07:53:13;552.88;;;509.25;;
49252;SDS011;35103;47.952;-1.502;2022-07-23T07:55:41;728.00;;;665.90;;
49252;SDS011;35103;47.952;-1.502;2022-07-23T07:58:07;622.22;;;572.22;;
49252;SDS011;35103;47.952;-1.502;2022-07-23T08:00:32;806.70;;;732.70;;
49252;SDS011;35103;47.952;-1.502;2022-07-23T08:02:58;613.60;;;564.13;;
49252;SDS011;35103;47.952;-1.502;2022-07-23T08:05:25;772.00;;;704.63;;
49252;SDS011;35103;47.952;-1.502;2022-07-23T08:07:52;738.35;;;673.45;;
49252;SDS011;35103;47.952;-1.502;2022-07-23T08:10:18;638.22;;;585.67;;
49252;SDS011;35103;47.952;-1.502;2022-07-23T08:12:45;699.95;;;634.47;;
49252;SDS011;35103;47.952;-1.502;2022-07-23T08:15:15;586.28;;;540.20;;
49252;SDS011;35103;47.952;-1.502;2022-07-23T08:17:42;615.55;;;563.42;;
49252;SDS011;35103;47.952;-1.502;2022-07-23T08:20:09;585.92;;;537.97;;
49252;SDS011;35103;47.952;-1.502;2022-07-23T08:22:43;697.78;;;637.17;;
49252;SDS011;35103;47.952;-1.502;2022-07-23T08:25:19;693.65;;;635.47;;
49252;SDS011;35103;47.952;-1.502;2022-07-23T08:27:47;556.30;;;512.00;;
49252;SDS011;35103;47.952;-1.502;2022-07-23T08:30:12;657.20;;;603.30;;
49252;SDS011;35103;47.952;-1.502;2022-07-23T08:35:28;715.35;;;654.90;;
49252;SDS011;35103;47.952;-1.502;2022-07-23T08:37:57;656.35;;;598.70;;
49252;SDS011;35103;47.952;-1.502;2022-07-23T08:40:25;655.72;;;601.60;;
49252;SDS011;35103;47.952;-1.502;2022-07-23T08:42:52;662.63;;;607.05;;
49252;SDS011;35103;47.952;-1.502;2022-07-23T08:45:19;712.30;;;651.35;;
49252;SDS011;35103;47.952;-1.502;2022-07-23T08:47:50;641.97;;;589.35;;
49252;SDS011;35103;47.952;-1.502;2022-07-23T08:50:16;578.08;;;530.63;;
49252;SDS011;35103;47.952;-1.502;2022-07-23T08:52:42;684.63;;;623.92;;
49252;SDS011;35103;47.952;-1.502;2022-07-23T08:55:08;707.95;;;645.25;;
49252;SDS011;35103;47.952;-1.502;2022-07-23T08:57:34;650.63;;;596.85;;
49252;SDS011;35103;47.952;-1.502;2022-07-23T09:00:00;605.22;;;554.75;;
49252;SDS011;35103;47.952;-1.502;2022-07-23T09:02:26;667.47;;;610.13;;
49252;SDS011;35103;47.952;-1.502;2022-07-23T09:04:51;785.60;;;704.53;;
49252;SDS011;35103;47.952;-1.502;2022-07-23T09:07:17;699.55;;;637.40;;
49252;SDS011;35103;47.952;-1.502;2022-07-23T09:09:43;744.28;;;682.78;;
49252;SDS011;35103;47.952;-1.502;2022-07-23T09:12:09;667.17;;;611.78;;
49252;SDS011;35103;47.952;-1.502;2022-07-23T09:14:42;688.15;;;628.13;;
49252;SDS011;35103;47.952;-1.502;2022-07-23T09:17:10;605.88;;;555.60;;
49252;SDS011;35103;47.952;-1.502;2022-07-23T09:19:36;678.17;;;619.97;;
49252;SDS011;35103;47.952;-1.502;2022-07-23T09:22:18;651.50;;;595.13;;
49252;SDS011;35103;47.952;-1.502;2022-07-23T09:27:44;633.05;;;580.65;;
49252;SDS011;35103;47.952;-1.502;2022-07-23T09:30:13;718.72;;;658.55;;
49252;SDS011;35103;47.952;-1.502;2022-07-23T09:32:39;644.15;;;591.58;;
49252;SDS011;35103;47.952;-1.502;2022-07-23T09:35:05;612.88;;;560.88;;
49252;SDS011;35103;47.952;-1.502;2022-07-23T09:37:31;834.92;;;749.70;;
49252;SDS011;35103;47.952;-1.502;2022-07-23T09:40:03;696.63;;;633.53;;
49252;SDS011;35103;47.952;-1.502;2022-07-23T09:42:33;754.88;;;680.70;;
49252;SDS011;35103;47.952;-1.502;2022-07-23T09:44:59;693.35;;;631.63;;
49252;SDS011;35103;47.952;-1.502;2022-07-23T09:47:27;672.05;;;615.22;;
49252;SDS011;35103;47.952;-1.502;2022-07-23T09:50:03;627.92;;;574.42;;
49252;SDS011;35103;47.952;-1.502;2022-07-23T09:52:32;667.67;;;612.15;;
49252;SDS011;35103;47.952;-1.502;2022-07-23T09:55:03;677.70;;;623.80;;
49252;SDS011;35103;47.952;-1.502;2022-07-23T09:57:30;638.17;;;588.42;;
49252;SDS011;35103;47.952;-1.502;2022-07-23T09:59:58;720.20;;;654.72;;
49252;SDS011;35103;47.952;-1.502;2022-07-23T10:02:28;761.75;;;694.70;;
49252;SDS011;35103;47.952;-1.502;2022-07-23T10:04:56;701.90;;;635.00;;
49252;SDS011;35103;47.952;-1.502;2022-07-23T10:07:22;742.17;;;671.97;;
49252;SDS011;35103;47.952;-1.502;2022-07-23T10:09:51;628.85;;;576.00;;
49252;SDS011;35103;47.952;-1.502;2022-07-23T10:12:17;735.20;;;671.70;;
49252;SDS011;35103;47.952;-1.502;2022-07-23T10:14:43;741.90;;;672.92;;
49252;SDS011;35103;47.952;-1.502;2022-07-23T10:17:09;667.50;;;611.38;;
49252;SDS011;35103;47.952;-1.502;2022-07-23T10:19:34;782.13;;;709.70;;
49252;SDS011;35103;47.952;-1.502;2022-07-23T10:22:07;724.28;;;658.00;;
49252;SDS011;35103;47.952;-1.502;2022-07-23T10:30:17;620.95;;;567.50;;
49252;SDS011;35103;47.952;-1.502;2022-07-23T10:33:00;684.83;;;622.30;;
49252;SDS011;35103;47.952;-1.502;2022-07-23T10:38:30;676.00;;;612.42;;
49252;SDS011;35103;47.952;-1.502;2022-07-23T10:41:19;749.88;;;676.55;;
49252;SDS011;35103;47.952;-1.502;2022-07-23T10:44:05;684.20;;;626.50;;
49252;SDS011;35103;47.952;-1.502;2022-07-23T10:46:35;678.67;;;621.95;;
49252;SDS011;35103;47.952;-1.502;2022-07-23T10:54:38;766.70;;;699.70;;
49252;SDS011;35103;47.952;-1.502;2022-07-23T10:57:08;545.97;;;498.50;;
49252;SDS011;35103;47.952;-1.502;2022-07-23T11:02:40;683.05;;;629.15;;
49252;SDS011;35103;47.952;-1.502;2022-07-23T11:05:12;671.58;;;618.03;;
49252;SDS011;35103;47.952;-1.502;2022-07-23T11:10:35;754.35;;;690.15;;
49252;SDS011;35103;47.952;-1.502;2022-07-23T11:29:55;563.47;;;516.55;;
49252;SDS011;35103;47.952;-1.502;2022-07-23T11:34:49;692.95;;;634.72;;
49252;SDS011;35103;47.952;-1.502;2022-07-23T11:37:35;742.78;;;682.15;;
49252;SDS011;35103;47.952;-1.502;2022-07-23T11:40:11;708.05;;;649.95;;
49252;SDS011;35103;47.952;-1.502;2022-07-23T11:42:41;654.95;;;596.58;;
49252;SDS011;35103;47.952;-1.502;2022-07-23T11:45:25;700.33;;;640.85;;
49252;SDS011;35103;47.952;-1.502;2022-07-23T11:47:56;693.03;;;630.88;;
49252;SDS011;35103;47.952;-1.502;2022-07-23T11:50:23;712.22;;;652.83;;
49252;SDS011;35103;47.952;-1.502;2022-07-23T11:52:49;634.15;;;579.35;;
49252;SDS011;35103;47.952;-1.502;2022-07-23T11:55:14;753.22;;;685.80;;
49252;SDS011;35103;47.952;-1.502;2022-07-23T11:57:41;641.35;;;584.55;;
49252;SDS011;35103;47.952;-1.502;2022-07-23T12:02:39;695.25;;;636.17;;
49252;SDS011;35103;47.952;-1.502;2022-07-23T12:05:28;722.47;;;659.38;;
49252;SDS011;35103;47.952;-1.502;2022-07-23T12:07:59;601.42;;;551.33;;
49252;SDS011;35103;47.952;-1.502;2022-07-23T12:10:43;785.08;;;717.25;;
49252;SDS011;35103;47.952;-1.502;2022-07-23T12:13:25;721.88;;;659.70;;
49252;SDS011;35103;47.952;-1.502;2022-07-23T12:15:51;689.35;;;629.42;;
49252;SDS011;35103;47.952;-1.502;2022-07-23T12:18:19;777.53;;;713.80;;
49252;SDS011;35103;47.952;-1.502;2022-07-23T12:20:47;694.17;;;635.45;;
49252;SDS011;35103;47.952;-1.502;2022-07-23T12:23:15;782.15;;;712.83;;
49252;SDS011;35103;47.952;-1.502;2022-07-23T12:25:43;753.55;;;686.70;;
49252;SDS011;35103;47.952;-1.502;2022-07-23T12:28:13;733.25;;;669.53;;
49252;SDS011;35103;47.952;-1.502;2022-07-23T12:30:42;695.33;;;635.92;;
49252;SDS011;35103;47.952;-1.502;2022-07-23T12:33:10;732.95;;;669.10;;
49252;SDS011;35103;47.952;-1.502;2022-07-23T12:35:39;812.63;;;747.60;;
49252;SDS011;35103;47.952;-1.502;2022-07-23T12:38:07;765.40;;;697.92;;
49252;SDS011;35103;47.952;-1.502;2022-07-23T12:40:45;772.33;;;708.78;;
49252;SDS011;35103;47.952;-1.502;2022-07-23T12:46:11;834.80;;;764.55;;
49252;SDS011;35103;47.952;-1.502;2022-07-23T12:53:46;813.30;;;748.83;;
49252;SDS011;35103;47.952;-1.502;2022-07-23T12:56:21;810.60;;;741.47;;
49252;SDS011;35103;47.952;-1.502;2022-07-23T13:01:29;779.67;;;713.50;;
49252;SDS011;35103;47.952;-1.502;2022-07-23T13:04:07;842.13;;;769.45;;
49252;SDS011;35103;47.952;-1.502;2022-07-23T13:06:49;760.20;;;693.90;;
49252;SDS011;35103;47.952;-1.502;2022-07-23T13:09:17;777.92;;;707.35;;
49252;SDS011;35103;47.952;-1.502;2022-07-23T13:11:47;792.17;;;720.92;;
49252;SDS011;35103;47.952;-1.502;2022-07-23T13:14:14;758.00;;;687.78;;
49252;SDS011;35103;47.952;-1.502;2022-07-23T13:16:41;657.88;;;600.83;;
49252;SDS011;35103;47.952;-1.502;2022-07-23T13:19:07;738.53;;;676.25;;
49252;SDS011;35103;47.952;-1.502;2022-07-23T13:21:32;811.35;;;743.65;;
49252;SDS011;35103;47.952;-1.502;2022-07-23T13:23:58;872.63;;;799.72;;
49252;SDS011;35103;47.952;-1.502;2022-07-23T13:26:33;850.55;;;767.17;;
49252;SDS011;35103;47.952;-1.502;2022-07-23T13:28:59;803.65;;;735.13;;
49252;SDS011;35103;47.952;-1.502;2022-07-23T13:31:24;854.75;;;785.85;;
49252;SDS011;35103;47.952;-1.502;2022-07-23T13:33:52;842.13;;;772.53;;
49252;SDS011;35103;47.952;-1.502;2022-07-23T13:36:18;849.30;;;779.42;;
49252;SDS011;35103;47.952;-1.502;2022-07-23T13:38:44;799.50;;;734.05;;
49252;SDS011;35103;47.952;-1.502;2022-07-23T13:41:09;759.17;;;691.60;;
49252;SDS011;35103;47.952;-1.502;2022-07-23T13:43:35;819.28;;;752.45;;
49252;SDS011;35103;47.952;-1.502;2022-07-23T13:46:00;759.00;;;694.28;;
49252;SDS011;35103;47.952;-1.502;2022-07-23T13:48:26;814.60;;;743.72;;
49252;SDS011;35103;47.952;-1.502;2022-07-23T13:50:52;766.13;;;703.40;;
49252;SDS011;35103;47.952;-1.502;2022-07-23T13:53:18;822.25;;;755.67;;
49252;SDS011;35103;47.952;-1.502;2022-07-23T13:55:49;815.63;;;747.88;;
49252;SDS011;35103;47.952;-1.502;2022-07-23T13:58:20;735.72;;;672.25;;
49252;SDS011;35103;47.952;-1.502;2022-07-23T14:00:47;849.28;;;778.70;;
49252;SDS011;35103;47.952;-1.502;2022-07-23T14:03:18;824.85;;;757.08;;
49252;SDS011;35103;47.952;-1.502;2022-07-23T14:05:48;856.90;;;786.80;;
49252;SDS011;35103;47.952;-1.502;2022-07-23T14:08:14;802.42;;;730.80;;
49252;SDS011;35103;47.952;-1.502;2022-07-23T14:10:40;716.83;;;656.13;;
49252;SDS011;35103;47.952;-1.502;2022-07-23T14:13:05;809.67;;;741.25;;
49252;SDS011;35103;47.952;-1.502;2022-07-23T14:15:31;762.40;;;698.85;;
49252;SDS011;35103;47.952;-1.502;2022-07-23T14:17:57;793.80;;;728.33;;
49252;SDS011;35103;47.952;-1.502;2022-07-23T14:20:29;844.13;;;777.75;;
49252;SDS011;35103;47.952;-1.502;2022-07-23T14:22:54;801.03;;;728.53;;
49252;SDS011;35103;47.952;-1.502;2022-07-23T14:25:20;783.55;;;718.50;;
49252;SDS011;35103;47.952;-1.502;2022-07-23T14:27:45;726.40;;;664.10;;
49252;SDS011;35103;47.952;-1.502;2022-07-23T14:30:12;797.05;;;732.35;;
49252;SDS011;35103;47.952;-1.502;2022-07-23T14:32:37;766.72;;;704.90;;
49252;SDS011;35103;47.952;-1.502;2022-07-23T14:35:03;835.55;;;767.08;;
49252;SDS011;35103;47.952;-1.502;2022-07-23T14:37:30;759.55;;;692.22;;
49252;SDS011;35103;47.952;-1.502;2022-07-23T14:39:58;764.95;;;700.83;;
49252;SDS011;35103;47.952;-1.502;2022-07-23T14:42:27;841.15;;;772.85;;
49252;SDS011;35103;47.952;-1.502;2022-07-23T14:44:52;775.78;;;715.08;;